Time;durP1;ratioP1;P1;durP2;ratioP2;P2;SDS_P1;SDS_P2;PMS_P1;PMS_P2;Temp;Humidity;BMP_temperature;BMP_pressure;BME280_temperature;BME280_humidity;BME280_pressure;Samples;Min_cycle;Max_cycle;Signal;HPM_P1;HPM_P2
2022/05/02 00:01:22;;;;;;;23.73;15.30;;;;;10.10;96435.00;;;;8390568;28;20251;-75
2022/05/02 00:05:27;;;;;;;24.70;15.97;;;;;10.10;96433.00;;;;8384004;28;20251;-75
2022/05/02 00:09:30;;;;;;;28.40;16.93;;;;;10.20;96436.00;;;;8390755;28;20298;-76
2022/05/02 00:13:33;;;;;;;27.00;15.73;;;;;10.10;96429.00;;;;8388143;28;20223;-76
2022/05/02 00:21:58;;;;;;;23.90;16.03;;;;;10.00;96427.00;;;;8386026;28;20227;-77
2022/05/02 00:26:02;;;;;;;30.00;15.97;;;;;10.10;96427.00;;;;8393584;28;20744;-76
2022/05/02 00:30:06;;;;;;;27.03;15.93;;;;;10.10;96425.00;;;;8390152;28;20315;-76
2022/05/02 00:34:10;;;;;;;26.73;16.67;;;;;10.00;96420.00;;;;8386816;28;20236;-76
2022/05/02 00:38:14;;;;;;;28.73;16.17;;;;;10.00;96423.00;;;;8389722;28;20231;-77
2022/05/02 00:42:18;;;;;;;21.05;14.50;;;;;10.00;96429.00;;;;8387822;28;20238;-76
2022/05/02 00:46:22;;;;;;;24.65;14.82;;;;;10.00;96425.00;;;;8383747;28;20779;-76
2022/05/02 00:50:37;;;;;;;22.47;15.27;;;;;9.90;96419.00;;;;8382810;28;20261;-76
2022/05/02 00:54:43;;;;;;;24.27;15.53;;;;;9.80;96419.00;;;;8383802;28;20246;-75
2022/05/02 00:58:47;;;;;;;21.97;15.23;;;;;9.70;96421.00;;;;8387261;28;20735;-76
2022/05/02 01:02:50;;;;;;;31.90;15.57;;;;;9.60;96422.00;;;;8392790;28;20658;-76
2022/05/02 01:07:12;;;;;;;25.27;15.37;;;;;9.50;96417.00;;;;8395941;28;20685;-76
2022/05/02 01:11:16;;;;;;;24.57;15.23;;;;;9.50;96410.00;;;;8392126;28;20225;-76
2022/05/02 01:15:20;;;;;;;21.50;14.20;;;;;9.30;96408.00;;;;8395601;28;20295;-76
2022/05/02 01:19:23;;;;;;;25.47;15.10;;;;;9.10;96405.00;;;;8389750;28;20841;-76
2022/05/02 01:23:27;;;;;;;26.67;15.13;;;;;9.00;96396.00;;;;8388536;28;20223;-77
2022/05/02 01:27:30;;;;;;;25.80;16.07;;;;;8.80;96389.00;;;;8380413;28;20708;-77
2022/05/02 01:31:33;;;;;;;25.73;15.10;;;;;8.60;96402.00;;;;8378429;28;20223;-75
2022/05/02 01:35:37;;;;;;;26.97;15.70;;;;;8.50;96393.00;;;;8388337;28;20311;-74
2022/05/02 01:39:42;;;;;;;26.43;15.37;;;;;8.20;96393.00;;;;8383862;28;20828;-74
2022/05/02 01:43:46;;;;;;;26.43;15.40;;;;;8.00;96392.00;;;;8382535;28;21038;-75
2022/05/02 01:47:49;;;;;;;27.27;15.20;;;;;7.80;96388.00;;;;8384327;28;20258;-75
2022/05/02 01:51:52;;;;;;;33.90;18.67;;;;;7.70;96388.00;;;;8381119;28;20231;-76
2022/05/02 01:55:58;;;;;;;28.30;17.63;;;;;7.70;96392.00;;;;8385520;28;20230;-77
2022/05/02 02:00:01;;;;;;;25.33;15.83;;;;;7.60;96383.00;;;;8383172;28;20227;-77
2022/05/02 02:05:48;;;;;;;30.07;17.10;;;;;7.50;96380.00;;;;8384554;28;20231;-77
2022/05/02 02:08:31;;;;;;;29.73;15.83;;;;;7.20;96374.00;;;;8383675;28;20306;-77
2022/05/02 02:12:36;;;;;;;30.00;16.57;;;;;7.10;96376.00;;;;8390135;28;20328;-77
2022/05/02 02:16:39;;;;;;;33.17;16.57;;;;;7.00;96371.00;;;;8383010;28;20261;-77
2022/05/02 02:20:43;;;;;;;34.47;17.90;;;;;7.00;96365.00;;;;8381653;28;20851;-76
2022/05/02 02:24:48;;;;;;;34.70;19.23;;;;;6.90;96370.00;;;;8394263;28;20612;-75
2022/05/02 02:28:54;;;;;;;28.03;16.13;;;;;7.00;96371.00;;;;8387239;28;20231;-76
2022/05/02 02:32:57;;;;;;;36.37;17.23;;;;;7.00;96369.00;;;;8395334;28;20323;-76
2022/05/02 02:37:00;;;;;;;33.00;16.47;;;;;6.90;96362.00;;;;8397794;28;20225;-76
2022/05/02 02:41:04;;;;;;;30.23;16.83;;;;;6.80;96357.00;;;;8390120;28;20298;-75
2022/05/02 02:45:09;;;;;;;32.50;17.13;;;;;6.70;96356.00;;;;8387147;28;20859;-74
2022/05/02 02:49:13;;;;;;;35.63;18.03;;;;;6.70;96359.00;;;;8392273;28;20225;-74
2022/05/02 02:53:16;;;;;;;29.90;16.27;;;;;6.70;96350.00;;;;8406039;28;20223;-74
2022/05/02 02:57:19;;;;;;;31.03;16.07;;;;;6.60;96347.00;;;;8385735;28;20589;-74
2022/05/02 03:01:24;;;;;;;34.40;16.67;;;;;6.50;96344.00;;;;8414130;22;22108;-72
2022/05/02 03:09:48;;;;;;;32.40;17.23;;;;;6.50;96333.00;;;;8377512;28;20225;-74
2022/05/02 03:13:51;;;;;;;36.93;18.87;;;;;6.50;96332.00;;;;8382816;28;20314;-75
2022/05/02 03:17:56;;;;;;;28.13;16.43;;;;;6.60;96333.00;;;;8385767;28;20719;-75
2022/05/02 03:21:59;;;;;;;28.67;16.77;;;;;6.50;96340.00;;;;8384970;28;20230;-75
2022/05/02 03:26:02;;;;;;;34.00;16.93;;;;;6.50;96339.00;;;;8383504;28;20282;-76
2022/05/02 03:30:07;;;;;;;35.43;17.97;;;;;6.40;96335.00;;;;8380897;28;20220;-76
2022/05/02 03:34:11;;;;;;;27.03;15.90;;;;;6.30;96338.00;;;;8382438;28;20237;-74
2022/05/02 03:38:15;;;;;;;35.90;18.00;;;;;6.20;96328.00;;;;8376536;28;20234;-74
2022/05/02 03:42:18;;;;;;;37.30;17.77;;;;;6.20;96334.00;;;;8384284;28;20226;-74
2022/05/02 03:46:22;;;;;;;62.77;17.20;;;;;6.20;96330.00;;;;8369802;28;20230;-75
2022/05/02 03:50:26;;;;;;;342.33;27.43;;;;;6.00;96325.00;;;;8377380;28;20245;-77
2022/05/02 03:54:30;;;;;;;57.37;18.57;;;;;5.90;96334.00;;;;8378946;28;20230;-77
2022/05/02 03:58:33;;;;;;;36.47;17.40;;;;;5.80;96337.00;;;;8379802;28;20249;-75
2022/05/02 04:02:36;;;;;;;40.73;19.03;;;;;5.90;96341.00;;;;8381483;28;20671;-76
2022/05/02 04:06:41;;;;;;;41.50;19.50;;;;;6.00;96331.00;;;;8377439;28;20236;-75
2022/05/02 04:10:44;;;;;;;33.50;17.43;;;;;6.00;96339.00;;;;8356896;28;20304;-76
2022/05/02 04:14:47;;;;;;;39.63;17.63;;;;;5.80;96338.00;;;;8325538;28;20248;-81
2022/05/02 04:18:52;;;;;;;40.80;17.93;;;;;5.70;96336.00;;;;8343892;28;20224;-79
2022/05/02 04:22:57;;;;;;;33.73;17.07;;;;;5.70;96331.00;;;;8352037;28;20260;-76
2022/05/02 04:27:00;;;;;;;140.33;20.53;;;;;5.70;96329.00;;;;8360279;28;20232;-75
2022/05/02 04:31:04;;;;;;;141.20;19.90;;;;;5.70;96326.00;;;;8347988;28;20488;-76
2022/05/02 04:35:10;;;;;;;35.47;18.07;;;;;5.70;96331.00;;;;8353823;28;20232;-79
2022/05/02 04:39:14;;;;;;;30.40;16.63;;;;;5.70;96332.00;;;;8379771;28;20282;-79
2022/05/02 04:43:18;;;;;;;38.73;19.00;;;;;5.80;96328.00;;;;8368572;28;20222;-75
2022/05/02 04:47:21;;;;;;;38.37;18.17;;;;;6.00;96338.00;;;;8373493;28;20250;-74
2022/05/02 04:51:30;;;;;;;34.07;16.70;;;;;6.10;96336.00;;;;8371874;28;20252;-75
2022/05/02 04:55:34;;;;;;;39.57;19.67;;;;;6.20;96341.00;;;;8348673;28;20295;-75
2022/05/02 04:59:38;;;;;;;43.63;20.73;;;;;6.40;96335.00;;;;8357734;28;20230;-75
2022/05/02 05:03:41;;;;;;;39.17;20.23;;;;;6.70;96346.00;;;;8369068;28;20716;-74
2022/05/02 05:07:44;;;;;;;38.47;20.03;;;;;6.90;96337.00;;;;8371038;28;20224;-76
2022/05/02 05:12:10;;;;;;;36.57;19.60;;;;;7.20;96344.00;;;;8374025;28;20245;-73
2022/05/02 05:16:41;;;;;;;44.20;22.43;;;;;7.40;96338.00;;;;8371424;28;20652;-75
2022/05/02 05:20:56;;;;;;;37.47;18.93;;;;;7.70;96342.00;;;;8377351;28;20339;-76
2022/05/02 05:25:21;;;;;;;35.03;18.40;;;;;8.00;96340.00;;;;8374057;28;20295;-74
2022/05/02 05:29:36;;;;;;;28.23;16.73;;;;;8.20;96341.00;;;;8362049;28;20817;-75
2022/05/02 05:33:50;;;;;;;27.20;15.30;;;;;8.40;96335.00;;;;8348112;28;20226;-76
2022/05/02 05:38:01;;;;;;;26.20;15.03;;;;;8.40;96343.00;;;;8337385;28;20331;-75
2022/05/02 05:42:13;;;;;;;26.10;15.53;;;;;8.50;96336.00;;;;8363187;28;20651;-76
2022/05/02 05:46:30;;;;;;;24.50;14.53;;;;;8.70;96327.00;;;;8342534;28;20227;-76
2022/05/02 05:50:38;;;;;;;32.33;15.47;;;;;8.80;96335.00;;;;8341357;28;20728;-76
2022/05/02 05:54:55;;;;;;;30.40;15.83;;;;;8.90;96338.00;;;;8347812;28;20319;-78
2022/05/02 05:59:09;;;;;;;31.77;17.03;;;;;9.00;96346.00;;;;8360030;28;20224;-76
2022/05/02 06:03:15;;;;;;;30.83;16.93;;;;;9.40;96344.00;;;;8341137;28;20224;-75
2022/05/02 06:07:19;;;;;;;36.23;18.30;;;;;9.70;96343.00;;;;8353403;28;20323;-77
2022/05/02 06:11:25;;;;;;;36.37;21.00;;;;;10.00;96337.00;;;;8348325;28;22947;-77
2022/05/02 06:19:54;;;;;;;36.28;19.77;;;;;10.80;96327.00;;;;8358578;28;20281;-76
2022/05/02 06:24:00;;;;;;;39.43;23.93;;;;;11.40;96330.00;;;;8381998;28;20223;-75
2022/05/02 06:28:04;;;;;;;47.63;27.77;;;;;11.90;96342.00;;;;8380024;28;20238;-78
2022/05/02 06:32:11;;;;;;;40.15;23.83;;;;;12.30;96345.00;;;;8384182;28;20286;-78
2022/05/02 06:36:43;;;;;;;35.85;22.48;;;;;12.90;96354.00;;;;8381760;28;20315;-78
2022/05/02 06:40:56;;;;;;;31.17;20.58;;;;;13.40;96348.00;;;;8381208;28;20241;-77
2022/05/02 06:45:09;;;;;;;26.67;19.27;;;;;13.80;96355.00;;;;8385931;28;20216;-77
2022/05/02 06:49:18;;;;;;;32.05;19.63;;;;;14.10;96346.00;;;;8380084;28;20631;-77
2022/05/02 06:53:38;;;;;;;26.85;18.23;;;;;14.50;96358.00;;;;8381280;28;20237;-76
2022/05/02 06:57:56;;;;;;;25.55;18.00;;;;;15.00;96356.00;;;;8385098;28;20314;-78
2022/05/02 07:02:04;;;;;;;22.35;15.95;;;;;15.50;96353.00;;;;8356157;28;20264;-78
2022/05/02 07:06:21;;;;;;;20.73;14.57;;;;;16.20;96348.00;;;;8354429;28;20233;-76
2022/05/02 07:10:29;;;;;;;22.75;14.50;;;;;17.00;96348.00;;;;8348075;28;20642;-77
2022/05/02 07:14:40;;;;;;;19.77;13.90;;;;;17.80;96348.00;;;;8362404;28;20220;-76
2022/05/02 07:18:54;;;;;;;17.77;13.73;;;;;18.10;96346.00;;;;8378192;28;20255;-78
2022/05/02 07:23:10;;;;;;;16.70;13.35;;;;;18.80;96348.00;;;;8382444;28;20228;-78
2022/05/02 07:27:33;;;;;;;15.75;11.82;;;;;19.30;96350.00;;;;8375355;28;20322;-78
2022/05/02 07:31:39;;;;;;;16.80;12.05;;;;;19.30;96353.00;;;;8346885;28;20315;-78
2022/05/02 07:35:43;;;;;;;18.23;12.02;;;;;19.50;96357.00;;;;8350521;28;20243;-78
2022/05/02 07:39:49;;;;;;;15.35;11.13;;;;;19.80;96357.00;;;;8360211;28;20236;-77
2022/05/02 07:43:59;;;;;;;11.82;10.40;;;;;20.30;96354.00;;;;8379359;28;20289;-76
2022/05/02 07:48:05;;;;;;;13.15;10.38;;;;;20.50;96352.00;;;;8379603;28;20256;-77
2022/05/02 07:52:11;;;;;;;14.32;10.75;;;;;20.60;96348.00;;;;8381417;28;20226;-77
2022/05/02 07:56:16;;;;;;;14.68;10.48;;;;;20.80;96352.00;;;;8383280;28;20218;-77
2022/05/02 08:00:22;;;;;;;10.95;9.25;;;;;20.70;96349.00;;;;8374398;28;20622;-77
2022/05/02 08:04:27;;;;;;;14.73;9.77;;;;;20.80;96353.00;;;;8379807;28;20308;-77
2022/05/02 08:08:38;;;;;;;10.25;8.93;;;;;21.20;96347.00;;;;8380362;28;20929;-77
2022/05/02 08:12:45;;;;;;;13.13;8.93;;;;;21.40;96354.00;;;;8380552;28;20230;-77
2022/05/02 08:17:03;;;;;;;12.88;9.38;;;;;21.60;96356.00;;;;8378743;28;20219;-78
2022/05/02 08:21:13;;;;;;;11.38;8.00;;;;;22.10;96362.00;;;;8379297;28;20228;-78
2022/05/02 08:29:57;;;;;;;10.18;7.45;;;;;22.80;96364.00;;;;8345023;28;20241;-76
2022/05/02 08:34:15;;;;;;;10.65;8.55;;;;;22.90;96369.00;;;;8372092;28;20254;-78
2022/05/02 08:38:46;;;;;;;9.27;7.95;;;;;22.90;96367.00;;;;8378165;28;20686;-79
2022/05/02 08:43:26;;;;;;;8.48;7.50;;;;;23.80;96360.00;;;;8377315;28;20315;-79
2022/05/02 08:48:06;;;;;;;6.80;5.68;;;;;24.50;96362.00;;;;8347833;28;20230;-78
2022/05/02 08:52:56;;;;;;;6.43;5.75;;;;;25.30;96354.00;;;;8374741;28;20315;-79
2022/05/02 08:57:50;;;;;;;9.75;6.32;;;;;25.50;96359.00;;;;8380855;28;20227;-78
2022/05/02 09:02:30;;;;;;;7.38;6.63;;;;;25.80;96355.00;;;;8376585;28;20320;-82
2022/05/02 09:07:33;;;;;;;7.07;6.47;;;;;25.90;96357.00;;;;8376231;28;20623;-78
2022/05/02 09:12:11;;;;;;;6.68;5.93;;;;;26.10;96355.00;;;;8333020;28;20224;-78
2022/05/02 09:16:49;;;;;;;9.23;5.32;;;;;26.40;96357.00;;;;8355199;28;20234;-78
2022/05/02 09:20:59;;;;;;;5.95;5.35;;;;;26.80;96352.00;;;;8335733;28;20227;-78
2022/05/02 09:25:07;;;;;;;6.50;5.90;;;;;26.50;96357.00;;;;8373912;28;20315;-77
2022/05/02 09:29:43;;;;;;;6.53;5.72;;;;;26.10;96350.00;;;;8375848;28;20266;-72
2022/05/02 09:34:01;;;;;;;5.68;5.10;;;;;25.20;96347.00;;;;8386599;28;20234;-72
2022/05/02 09:38:23;;;;;;;6.47;5.68;;;;;24.90;96346.00;;;;8376792;28;20302;-72
2022/05/02 09:42:44;;;;;;;7.00;5.63;;;;;25.20;96354.00;;;;8384417;28;20230;-71
2022/05/02 09:51:56;;;;;;;9.43;4.90;;;;;25.00;96344.00;;;;8384957;28;20740;-76
2022/05/02 10:05:06;;;;;;;7.93;5.35;;;;;24.80;96336.00;;;;8380183;28;20236;-68
2022/05/02 10:09:21;;;;;;;5.50;4.70;;;;;25.00;96332.00;;;;8380005;28;20220;-70
2022/05/02 10:13:33;;;;;;;6.78;4.97;;;;;24.80;96328.00;;;;8377896;28;21526;-71
2022/05/02 10:17:54;;;;;;;5.25;4.35;;;;;24.70;96334.00;;;;8374550;28;20211;-72
2022/05/02 10:22:19;;;;;;;7.70;5.70;;;;;24.60;96327.00;;;;8382630;28;20263;-72
2022/05/02 10:26:32;;;;;;;6.32;5.30;;;;;24.20;96321.00;;;;8384708;28;20314;-70
2022/05/02 10:30:44;;;;;;;7.60;5.20;;;;;24.10;96320.00;;;;8375701;28;20239;-71
2022/05/02 10:34:52;;;;;;;6.60;5.70;;;;;23.80;96321.00;;;;8376201;28;20286;-71
2022/05/02 10:39:01;;;;;;;6.50;5.55;;;;;24.00;96314.00;;;;8384352;28;21023;-72
2022/05/02 10:43:06;;;;;;;9.88;5.22;;;;;24.60;96307.00;;;;8383434;28;20235;-69
2022/05/02 10:47:12;;;;;;;5.43;4.93;;;;;25.50;96311.00;;;;8385743;28;20228;-71
2022/05/02 10:51:23;;;;;;;5.03;4.10;;;;;25.80;96313.00;;;;8390680;28;20215;-71
2022/05/02 10:55:33;;;;;;;5.22;4.20;;;;;26.40;96308.00;;;;8375363;28;20232;-71
2022/05/02 10:59:40;;;;;;;3.95;3.65;;;;;26.90;96301.00;;;;8354778;28;20228;-70
2022/05/02 11:03:54;;;;;;;4.75;4.05;;;;;27.50;96306.00;;;;8360588;28;20224;-70
2022/05/02 11:08:09;;;;;;;4.68;4.25;;;;;27.70;96303.00;;;;8360595;28;20229;-71
2022/05/02 11:12:16;;;;;;;5.38;4.88;;;;;27.60;96292.00;;;;8377226;28;20232;-71
2022/05/02 11:16:26;;;;;;;5.53;4.90;;;;;28.10;96291.00;;;;8365560;28;20558;-71
2022/05/02 11:20:42;;;;;;;5.35;4.85;;;;;28.30;96291.00;;;;8379949;28;20228;-70
2022/05/02 11:24:53;;;;;;;6.40;4.60;;;;;28.60;96290.00;;;;8371996;28;20227;-70
2022/05/02 11:29:20;;;;;;;5.32;4.78;;;;;28.20;96281.00;;;;8376825;28;20323;-70
2022/05/02 11:33:33;;;;;;;5.05;4.32;;;;;28.10;96274.00;;;;8374325;28;20307;-70
2022/05/02 11:37:39;;;;;;;4.88;4.47;;;;;28.00;96266.00;;;;8368916;28;20274;-71
2022/05/02 11:41:45;;;;;;;5.10;4.63;;;;;28.30;96264.00;;;;8368876;28;20278;-71
2022/05/02 11:46:04;;;;;;;4.50;4.10;;;;;29.40;96264.00;;;;8377329;28;20227;-71
2022/05/02 11:50:10;;;;;;;4.97;4.40;;;;;30.10;96258.00;;;;8377317;28;20219;-71
2022/05/02 11:54:36;;;;;;;5.47;4.60;;;;;31.00;96259.00;;;;8376164;28;20944;-71
2022/05/02 11:58:46;;;;;;;4.50;4.10;;;;;31.20;96260.00;;;;8378720;28;20227;-71
2022/05/02 12:02:56;;;;;;;5.75;4.00;;;;;31.20;96257.00;;;;8383760;28;20232;-71
2022/05/02 12:07:02;;;;;;;5.05;4.55;;;;;30.40;96252.00;;;;8372467;28;20224;-71
2022/05/02 12:11:07;;;;;;;4.55;4.13;;;;;30.10;96240.00;;;;8350083;28;20259;-70
2022/05/02 12:15:12;;;;;;;4.78;4.20;;;;;29.40;96236.00;;;;8376657;28;20251;-70
2022/05/02 12:19:30;;;;;;;4.50;4.10;;;;;29.10;96234.00;;;;8382863;28;20749;-70
2022/05/02 12:23:35;;;;;;;6.07;5.05;;;;;28.70;96234.00;;;;8376906;28;20236;-72
2022/05/02 12:27:38;;;;;;;6.38;4.22;;;;;28.30;96229.00;;;;8381132;28;20310;-71
2022/05/02 12:31:44;;;;;;;5.15;3.88;;;;;28.40;96227.00;;;;8370527;28;20250;-70
2022/05/02 12:35:50;;;;;;;4.75;4.30;;;;;27.90;96230.00;;;;8379675;28;20562;-72
2022/05/02 12:40:05;;;;;;;4.75;3.85;;;;;27.30;96223.00;;;;8371177;28;20306;-72
2022/05/02 12:44:09;;;;;;;5.85;3.90;;;;;26.80;96231.00;;;;8379805;28;20849;-70
2022/05/02 12:48:22;;;;;;;4.35;4.05;;;;;26.50;96227.00;;;;8372616;28;20228;-70
2022/05/02 12:52:29;;;;;;;5.07;4.40;;;;;26.70;96219.00;;;;8370943;28;20847;-72
2022/05/02 12:56:32;;;;;;;7.15;4.47;;;;;27.00;96212.00;;;;8383256;28;20228;-69
2022/05/02 13:00:36;;;;;;;5.90;4.75;;;;;26.60;96211.00;;;;8373012;28;20958;-69
2022/05/02 13:04:47;;;;;;;5.25;4.75;;;;;26.00;96199.00;;;;8374759;28;20232;-71
2022/05/02 13:09:07;;;;;;;4.63;4.10;;;;;26.10;96186.00;;;;8366940;28;20255;-71
2022/05/02 13:13:13;;;;;;;5.10;4.25;;;;;26.50;96187.00;;;;8354727;28;20319;-73
2022/05/02 13:17:21;;;;;;;6.95;4.45;;;;;26.60;96180.00;;;;8367614;28;20220;-72
2022/05/02 13:21:25;;;;;;;4.65;4.10;;;;;26.50;96179.00;;;;8375240;28;21052;-72
2022/05/02 13:26:01;;;;;;;6.35;4.68;;;;;26.20;96171.00;;;;8356856;28;20223;-71
2022/05/02 13:30:08;;;;;;;4.95;4.22;;;;;26.30;96178.00;;;;8337566;28;20275;-71
2022/05/02 13:34:21;;;;;;;5.85;4.15;;;;;26.90;96169.00;;;;8339527;28;20235;-71
2022/05/02 13:38:32;;;;;;;4.50;3.95;;;;;28.50;96178.00;;;;8328710;28;20713;-72
2022/05/02 13:42:51;;;;;;;3.90;3.60;;;;;28.80;96177.00;;;;8369006;28;20308;-71
2022/05/02 13:46:59;;;;;;;4.95;4.00;;;;;28.30;96168.00;;;;8370197;28;20341;-72
2022/05/02 13:51:10;;;;;;;4.22;3.65;;;;;26.80;96177.00;;;;8368443;28;20791;-71
2022/05/02 13:55:21;;;;;;;5.72;3.15;;;;;25.90;96172.00;;;;8371456;28;20224;-71
2022/05/02 13:59:40;;;;;;;3.28;2.47;;;;;25.30;96181.00;;;;8372864;28;20632;-72
2022/05/02 14:03:48;;;;;;;2.25;2.15;;;;;25.20;96174.00;;;;8370842;28;20230;-70
2022/05/02 14:07:54;;;;;;;4.40;2.40;;;;;24.90;96175.00;;;;8375816;28;20234;-72
2022/05/02 14:11:58;;;;;;;3.10;2.90;;;;;24.90;96176.00;;;;8381342;28;20255;-72
2022/05/02 14:16:06;;;;;;;3.00;2.80;;;;;24.70;96181.00;;;;8371172;28;20232;-70
2022/05/02 14:20:13;;;;;;;3.30;3.05;;;;;24.40;96164.00;;;;8383503;28;20224;-70
2022/05/02 14:24:16;;;;;;;3.83;3.00;;;;;24.60;96179.00;;;;8379342;28;20255;-70
2022/05/02 14:28:21;;;;;;;3.47;3.17;;;;;24.90;96176.00;;;;8369176;28;20223;-71
2022/05/02 14:32:39;;;;;;;3.33;3.10;;;;;24.80;96162.00;;;;8369040;28;20721;-71
2022/05/02 14:36:43;;;;;;;3.38;3.08;;;;;24.90;96169.00;;;;8383432;28;20299;-70
2022/05/02 14:40:48;;;;;;;4.25;3.45;;;;;24.90;96172.00;;;;8375675;28;20238;-71
2022/05/02 14:44:52;;;;;;;3.47;3.15;;;;;25.00;96164.00;;;;8365659;28;20246;-72
2022/05/02 14:49:01;;;;;;;4.20;3.90;;;;;24.80;96169.00;;;;8376393;28;20318;-69
2022/05/02 14:53:07;;;;;;;4.13;3.30;;;;;25.40;96167.00;;;;8378318;28;20626;-71
2022/05/02 14:57:14;;;;;;;4.85;3.10;;;;;25.50;96169.00;;;;8383633;28;20335;-70
2022/05/02 15:01:17;;;;;;;9.52;4.10;;;;;24.50;96165.00;;;;8384043;28;20596;-70
2022/05/02 15:05:23;;;;;;;3.80;3.40;;;;;23.80;96156.00;;;;8384711;28;20240;-70
2022/05/02 15:14:35;;;;;;;4.80;3.70;;;;;23.10;96157.00;;;;8371218;28;20307;-70
2022/05/02 15:23:35;;;;;;;9.07;4.40;;;;;22.10;96151.00;;;;8358334;28;20260;-71
2022/05/02 15:36:52;;;;;;;3.60;3.30;;;;;20.70;96142.00;;;;8353273;28;20300;-69
2022/05/02 15:40:57;;;;;;;5.22;3.88;;;;;20.50;96144.00;;;;8353434;28;20234;-70
2022/05/02 15:45:20;;;;;;;3.85;3.45;;;;;20.30;96142.00;;;;8355225;28;20251;-69
2022/05/02 15:49:27;;;;;;;3.33;3.13;;;;;20.10;96138.00;;;;8354900;28;20227;-72
2022/05/02 15:53:30;;;;;;;4.07;3.65;;;;;19.80;96136.00;;;;8375365;28;20307;-70
2022/05/02 15:57:53;;;;;;;3.40;3.00;;;;;19.60;96148.00;;;;8363612;28;20705;-69
2022/05/02 16:01:57;;;;;;;2.17;2.08;;;;;19.50;96143.00;;;;8373194;28;20330;-70
2022/05/02 16:06:21;;;;;;;2.63;2.42;;;;;19.30;96144.00;;;;8363972;28;20326;-70
2022/05/02 16:10:32;;;;;;;2.10;2.00;;;;;19.20;96154.00;;;;8378083;28;20297;-70
2022/05/02 16:14:41;;;;;;;2.53;1.90;;;;;19.10;96144.00;;;;8379812;28;20238;-69
2022/05/02 16:18:46;;;;;;;1.88;1.77;;;;;19.00;96134.00;;;;8371307;28;20231;-69
2022/05/02 16:22:51;;;;;;;5.38;2.67;;;;;18.90;96136.00;;;;8370531;28;20710;-70
2022/05/02 16:26:59;;;;;;;4.28;3.15;;;;;18.70;96140.00;;;;8379246;28;20307;-70
2022/05/02 16:31:06;;;;;;;3.88;3.35;;;;;18.70;96146.00;;;;8374432;28;20238;-70
2022/05/02 16:35:11;;;;;;;4.18;3.30;;;;;18.60;96139.00;;;;8377303;28;20946;-70
2022/05/02 16:39:16;;;;;;;7.30;4.40;;;;;18.50;96133.00;;;;8378427;28;20224;-70
2022/05/02 16:43:20;;;;;;;6.22;4.70;;;;;18.40;96131.00;;;;8364293;28;20227;-70
2022/05/02 16:47:25;;;;;;;6.15;3.65;;;;;18.40;96136.00;;;;8371081;28;20236;-69
2022/05/02 16:51:29;;;;;;;3.90;3.50;;;;;18.30;96129.00;;;;8373785;28;20224;-71
2022/05/02 16:55:33;;;;;;;3.83;3.50;;;;;18.30;96126.00;;;;8372599;28;20255;-70
2022/05/02 16:59:37;;;;;;;3.65;3.35;;;;;18.30;96125.00;;;;8374577;28;20315;-70
2022/05/02 17:03:44;;;;;;;3.92;3.60;;;;;18.40;96124.00;;;;8367848;28;21008;-70
2022/05/02 17:07:50;;;;;;;3.92;3.45;;;;;18.40;96115.00;;;;8343195;28;20697;-69
2022/05/02 17:11:53;;;;;;;4.28;3.88;;;;;18.30;96111.00;;;;8353996;28;20867;-69
2022/05/02 17:16:09;;;;;;;4.93;4.18;;;;;18.30;96106.00;;;;8380325;28;20302;-68
2022/05/02 17:20:18;;;;;;;3.83;3.53;;;;;18.30;96112.00;;;;8354900;28;20232;-71
2022/05/02 17:24:24;;;;;;;4.30;3.40;;;;;18.20;96118.00;;;;8347651;28;20255;-71
2022/05/02 17:28:31;;;;;;;4.00;3.70;;;;;18.10;96109.00;;;;8363769;28;21028;-71
2022/05/02 17:32:44;;;;;;;5.90;4.38;;;;;17.80;96123.00;;;;8350101;28;20232;-71
2022/05/02 17:36:50;;;;;;;4.22;3.83;;;;;17.70;96118.00;;;;8372001;28;20230;-71
2022/05/02 17:41:10;;;;;;;4.03;3.72;;;;;17.50;96125.00;;;;8355961;28;20223;-70
2022/05/02 17:45:13;;;;;;;3.60;3.30;;;;;17.30;96128.00;;;;8368348;28;20310;-70
2022/05/02 17:49:18;;;;;;;4.70;3.60;;;;;17.10;96128.00;;;;8371946;28;20689;-70
2022/05/02 17:53:22;;;;;;;3.70;3.40;;;;;17.00;96132.00;;;;8371495;28;20223;-70
2022/05/02 17:57:27;;;;;;;3.75;3.45;;;;;16.80;96125.00;;;;8376358;28;20696;-71
2022/05/02 18:01:30;;;;;;;8.60;4.43;;;;;16.70;96122.00;;;;8381937;28;20220;-71
2022/05/02 18:05:39;;;;;;;5.65;4.75;;;;;16.50;96129.00;;;;8380137;28;20304;-71
2022/05/02 18:09:47;;;;;;;5.28;4.07;;;;;16.40;96125.00;;;;8379883;28;20292;-72
2022/05/02 18:13:51;;;;;;;4.80;4.07;;;;;16.30;96124.00;;;;8382197;28;20220;-72
2022/05/02 18:17:55;;;;;;;4.82;4.35;;;;;16.10;96128.00;;;;8384500;28;20601;-72
2022/05/02 18:22:04;;;;;;;5.53;3.92;;;;;16.00;96131.00;;;;8378606;28;20227;-75
2022/05/02 18:26:19;;;;;;;11.85;5.40;;;;;15.80;96133.00;;;;8378748;28;20228;-75
2022/05/02 18:30:23;;;;;;;8.73;4.40;;;;;15.70;96135.00;;;;8377841;28;20228;-72
2022/05/02 18:35:49;;;;;;;8.38;4.07;;;;;15.50;96131.00;;;;8380344;28;20941;-75
2022/05/02 18:38:53;;;;;;;3.95;3.65;;;;;15.40;96142.00;;;;8370367;28;20216;-75
2022/05/02 18:43:04;;;;;;;6.22;4.43;;;;;15.20;96142.00;;;;8374397;28;20344;-75
2022/05/02 18:55:56;;;;;;;4.57;3.72;;;;;14.70;96153.00;;;;8374653;28;20305;-76
2022/05/02 19:00:10;;;;;;;4.95;4.40;;;;;14.50;96156.00;;;;8379972;28;20743;-77
2022/05/02 19:04:16;;;;;;;6.65;4.45;;;;;14.30;96160.00;;;;8379174;28;20730;-75
2022/05/02 19:08:21;;;;;;;7.50;4.82;;;;;14.20;96165.00;;;;8380994;28;20223;-76
2022/05/02 19:12:26;;;;;;;8.20;4.60;;;;;14.00;96163.00;;;;8372572;28;20237;-75
2022/05/02 19:16:36;;;;;;;10.15;4.78;;;;;13.80;96166.00;;;;8363742;28;20886;-76
2022/05/02 19:20:44;;;;;;;5.32;4.82;;;;;13.70;96166.00;;;;8378269;28;20261;-77
2022/05/02 19:25:11;;;;;;;5.47;4.80;;;;;13.60;96169.00;;;;8372712;28;20261;-76
2022/05/02 19:29:20;;;;;;;7.50;5.05;;;;;13.50;96171.00;;;;8372861;28;20227;-76
2022/05/02 19:33:30;;;;;;;4.40;4.00;;;;;13.50;96172.00;;;;8379690;28;20259;-75
2022/05/02 19:42:02;;;;;;;9.52;5.25;;;;;13.50;96178.00;;;;8379180;28;20981;-75
2022/05/02 19:46:09;;;;;;;7.70;5.32;;;;;13.50;96179.00;;;;8365375;28;20237;-74
2022/05/02 19:50:14;;;;;;;7.15;5.22;;;;;13.60;96181.00;;;;8379510;28;20572;-76
2022/05/02 19:54:18;;;;;;;10.80;5.93;;;;;13.70;96183.00;;;;8380791;28;20246;-74
2022/05/02 19:58:21;;;;;;;9.65;5.90;;;;;13.70;96182.00;;;;8378907;28;20240;-74
2022/05/02 20:02:26;;;;;;;6.00;5.43;;;;;13.70;96178.00;;;;8380591;28;20259;-74
2022/05/02 20:06:31;;;;;;;6.38;5.32;;;;;13.70;96179.00;;;;8379138;28;20736;-73
2022/05/02 20:10:35;;;;;;;7.60;5.13;;;;;13.70;96185.00;;;;8373658;28;20321;-75
2022/05/02 20:14:38;;;;;;;6.10;5.50;;;;;13.80;96187.00;;;;8375026;28;20249;-76
2022/05/02 20:18:41;;;;;;;5.78;5.18;;;;;13.90;96182.00;;;;8378645;28;20509;-74
2022/05/02 20:22:54;;;;;;;8.82;4.97;;;;;14.00;96188.00;;;;8357734;28;20236;-75
2022/05/02 20:26:57;;;;;;;5.20;4.70;;;;;14.10;96189.00;;;;8342235;28;20243;-77
2022/05/02 20:31:03;;;;;;;6.90;5.20;;;;;14.20;96199.00;;;;8346937;28;20326;-71
2022/05/02 20:39:44;;;;;;;5.85;5.35;;;;;14.30;96198.00;;;;8376449;28;20227;-74
2022/05/02 20:43:58;;;;;;;8.23;5.45;;;;;14.30;96207.00;;;;8378744;28;20238;-74
2022/05/02 20:48:06;;;;;;;7.13;5.20;;;;;14.30;96210.00;;;;8378488;28;20234;-73
2022/05/02 20:52:10;;;;;;;9.48;5.53;;;;;14.30;96204.00;;;;8385099;28;20230;-75
2022/05/02 20:56:15;;;;;;;6.57;4.68;;;;;14.30;96197.00;;;;8370743;28;20262;-73
2022/05/02 21:00:19;;;;;;;6.43;4.75;;;;;14.20;96196.00;;;;8369814;28;20252;-73
2022/05/02 21:04:25;;;;;;;4.72;4.32;;;;;14.20;96203.00;;;;8374434;28;20315;-72
2022/05/02 21:08:28;;;;;;;6.25;4.93;;;;;14.20;96186.00;;;;8372628;28;20232;-75
2022/05/02 21:12:47;;;;;;;5.50;4.90;;;;;14.20;96187.00;;;;8381256;28;20741;-75
2022/05/02 21:16:52;;;;;;;6.18;5.40;;;;;14.10;96192.00;;;;8364737;28;20310;-75
2022/05/02 21:21:01;;;;;;;5.63;5.13;;;;;14.10;96190.00;;;;8370170;28;20215;-80
2022/05/02 21:25:16;;;;;;;5.40;4.90;;;;;14.00;96186.00;;;;8373428;28;20236;-82
2022/05/02 21:29:41;;;;;;;6.50;5.15;;;;;14.00;96189.00;;;;8376603;28;20230;-72
2022/05/02 21:33:56;;;;;;;8.30;5.25;;;;;14.00;96187.00;;;;8369950;28;20234;-76
2022/05/02 21:38:02;;;;;;;7.40;5.10;;;;;14.00;96181.00;;;;8380104;28;20239;-74
2022/05/02 21:42:06;;;;;;;6.03;5.40;;;;;14.00;96180.00;;;;8380251;28;20306;-75
2022/05/02 21:46:11;;;;;;;5.65;5.10;;;;;14.00;96175.00;;;;8381689;28;20251;-72
2022/05/02 21:50:14;;;;;;;6.32;5.70;;;;;14.00;96174.00;;;;8379643;28;20230;-74